Time;durP1;ratioP1;P1;durP2;ratioP2;P2;SDS_P1;SDS_P2;PMS_P1;PMS_P2;Temp;Humidity;BMP_temperature;BMP_pressure;BME280_temperature;BME280_humidity;BME280_pressure;Samples;Min_cycle;Max_cycle;Signal;HPM_P1;HPM_P2
2024/04/07 00:01:17;;;;;;;1.8;1.5;;;;;;;;;;;;;
2024/04/07 00:03:42;;;;;;;2.8;1.6;;;;;;;;;;;;;
2024/04/07 00:06:07;;;;;;;3.5;1.4;;;;;;;;;;;;;
2024/04/07 00:08:32;;;;;;;4.7;1.6;;;;;;;;;;;;;
2024/04/07 00:10:57;;;;;;;2.9;1.6;;;;;;;;;;;;;
2024/04/07 00:13:22;;;;;;;2.4;1.7;;;;;;;;;;;;;
2024/04/07 00:15:47;;;;;;;1.5;1.4;;;;;;;;;;;;;
2024/04/07 00:18:13;;;;;;;2.9;1.6;;;;;;;;;;;;;
2024/04/07 00:20:38;;;;;;;2.3;1.6;;;;;;;;;;;;;
2024/04/07 00:23:02;;;;;;;3;1.6;;;;;;;;;;;;;
2024/04/07 00:25:27;;;;;;;2.5;1.6;;;;;;;;;;;;;
2024/04/07 00:27:53;;;;;;;2.6;1.7;;;;;;;;;;;;;
2024/04/07 00:30:18;;;;;;;2.5;1.5;;;;;;;;;;;;;
2024/04/07 00:32:43;;;;;;;2.3;1.2;;;;;;;;;;;;;
2024/04/07 00:35:08;;;;;;;2.9;1.5;;;;;;;;;;;;;
2024/04/07 00:37:33;;;;;;;1.6;1.4;;;;;;;;;;;;;
2024/04/07 00:39:58;;;;;;;2.7;1.4;;;;;;;;;;;;;
2024/04/07 00:42:24;;;;;;;2.2;1.5;;;;;;;;;;;;;
2024/04/07 00:44:49;;;;;;;3.1;1.6;;;;;;;;;;;;;
2024/04/07 00:47:13;;;;;;;3.9;1.8;;;;;;;;;;;;;
2024/04/07 00:49:39;;;;;;;1.7;1.3;;;;;;;;;;;;;
2024/04/07 00:52:04;;;;;;;2.2;1.3;;;;;;;;;;;;;
2024/04/07 00:54:29;;;;;;;2;1.4;;;;;;;;;;;;;
2024/04/07 00:56:54;;;;;;;1.4;1.3;;;;;;;;;;;;;
2024/04/07 00:59:19;;;;;;;2;1.2;;;;;;;;;;;;;
2024/04/07 01:01:44;;;;;;;2;1.2;;;;;;;;;;;;;
2024/04/07 01:04:09;;;;;;;2.3;1.1;;;;;;;;;;;;;
2024/04/07 01:06:34;;;;;;;1.3;1.1;;;;;;;;;;;;;
2024/04/07 01:08:59;;;;;;;1.8;1.1;;;;;;;;;;;;;
2024/04/07 01:11:24;;;;;;;3.4;1.2;;;;;;;;;;;;;
2024/04/07 01:13:49;;;;;;;2.3;1.5;;;;;;;;;;;;;
2024/04/07 01:16:14;;;;;;;2.3;1.5;;;;;;;;;;;;;
2024/04/07 01:18:39;;;;;;;1.4;1.2;;;;;;;;;;;;;
2024/04/07 01:21:05;;;;;;;1.9;1.5;;;;;;;;;;;;;
2024/04/07 01:23:30;;;;;;;1.8;1.4;;;;;;;;;;;;;
2024/04/07 01:25:55;;;;;;;1.7;1.2;;;;;;;;;;;;;
2024/04/07 01:28:20;;;;;;;2.9;1.6;;;;;;;;;;;;;
2024/04/07 01:30:45;;;;;;;2;1.2;;;;;;;;;;;;;
2024/04/07 01:33:11;;;;;;;1.8;1.2;;;;;;;;;;;;;
2024/04/07 01:35:35;;;;;;;2.6;1.2;;;;;;;;;;;;;
2024/04/07 01:38:01;;;;;;;1.2;1.1;;;;;;;;;;;;;
2024/04/07 01:40:25;;;;;;;1.6;1.2;;;;;;;;;;;;;
2024/04/07 01:42:52;;;;;;;3.2;1.7;;;;;;;;;;;;;
2024/04/07 01:45:16;;;;;;;4;1.3;;;;;;;;;;;;;
2024/04/07 01:47:46;;;;;;;2.4;1.2;;;;;;;;;;;;;
2024/04/07 01:50:09;;;;;;;2.4;1.2;;;;;;;;;;;;;
2024/04/07 01:52:34;;;;;;;1.5;1.1;;;;;;;;;;;;;
2024/04/07 01:54:59;;;;;;;2.2;1.2;;;;;;;;;;;;;
2024/04/07 01:57:24;;;;;;;1.6;1.2;;;;;;;;;;;;;
2024/04/07 01:59:49;;;;;;;1.3;1;;;;;;;;;;;;;
2024/04/07 02:02:16;;;;;;;2.4;1;;;;;;;;;;;;;
2024/04/07 02:04:40;;;;;;;4.1;1.3;;;;;;;;;;;;;
2024/04/07 02:07:05;;;;;;;1.4;1.1;;;;;;;;;;;;;
2024/04/07 02:09:30;;;;;;;1.3;0.9;;;;;;;;;;;;;
2024/04/07 02:11:55;;;;;;;2.1;0.9;;;;;;;;;;;;;
2024/04/07 02:14:20;;;;;;;0.7;0.7;;;;;;;;;;;;;
2024/04/07 02:16:46;;;;;;;1.2;1;;;;;;;;;;;;;
2024/04/07 02:19:13;;;;;;;1.2;1;;;;;;;;;;;;;
2024/04/07 02:21:36;;;;;;;1.1;1;;;;;;;;;;;;;
2024/04/07 02:24:01;;;;;;;1.8;1;;;;;;;;;;;;;
2024/04/07 02:26:26;;;;;;;2.8;0.9;;;;;;;;;;;;;
2024/04/07 02:28:51;;;;;;;2.5;1.2;;;;;;;;;;;;;
2024/04/07 02:31:16;;;;;;;1.8;0.8;;;;;;;;;;;;;
2024/04/07 02:33:45;;;;;;;2;1;;;;;;;;;;;;;
2024/04/07 02:36:07;;;;;;;1.3;0.9;;;;;;;;;;;;;
2024/04/07 02:38:32;;;;;;;1.4;0.9;;;;;;;;;;;;;
2024/04/07 02:40:57;;;;;;;1.5;0.8;;;;;;;;;;;;;
2024/04/07 02:43:23;;;;;;;1.2;0.9;;;;;;;;;;;;;
2024/04/07 02:48:12;;;;;;;1.2;0.8;;;;;;;;;;;;;
2024/04/07 02:50:37;;;;;;;0.9;0.8;;;;;;;;;;;;;
2024/04/07 02:53:03;;;;;;;1.5;1;;;;;;;;;;;;;
2024/04/07 02:55:28;;;;;;;1.5;0.9;;;;;;;;;;;;;
2024/04/07 02:57:53;;;;;;;0.7;0.6;;;;;;;;;;;;;
2024/04/07 03:00:18;;;;;;;1;0.8;;;;;;;;;;;;;
2024/04/07 03:02:43;;;;;;;0.8;0.7;;;;;;;;;;;;;
2024/04/07 03:05:09;;;;;;;1.9;1.1;;;;;;;;;;;;;
2024/04/07 03:07:33;;;;;;;1.1;0.9;;;;;;;;;;;;;
2024/04/07 03:09:59;;;;;;;2.4;0.9;;;;;;;;;;;;;
2024/04/07 03:12:24;;;;;;;0.9;0.8;;;;;;;;;;;;;
2024/04/07 03:14:49;;;;;;;1.5;1;;;;;;;;;;;;;
2024/04/07 03:17:14;;;;;;;2.4;0.9;;;;;;;;;;;;;
2024/04/07 03:19:39;;;;;;;1;0.9;;;;;;;;;;;;;
2024/04/07 03:22:04;;;;;;;1.6;1;;;;;;;;;;;;;
2024/04/07 03:24:29;;;;;;;1.1;0.9;;;;;;;;;;;;;
2024/04/07 03:26:54;;;;;;;1;1;;;;;;;;;;;;;
2024/04/07 03:29:19;;;;;;;0.7;0.7;;;;;;;;;;;;;
2024/04/07 03:31:44;;;;;;;1.3;1.1;;;;;;;;;;;;;
2024/04/07 03:34:10;;;;;;;2.1;1.1;;;;;;;;;;;;;
2024/04/07 03:36:35;;;;;;;2.1;1.3;;;;;;;;;;;;;
2024/04/07 03:39:00;;;;;;;1.2;1.1;;;;;;;;;;;;;
2024/04/07 03:41:25;;;;;;;1.2;1.1;;;;;;;;;;;;;
2024/04/07 03:43:50;;;;;;;3.1;1.1;;;;;;;;;;;;;
2024/04/07 03:46:17;;;;;;;2;0.9;;;;;;;;;;;;;
2024/04/07 03:48:41;;;;;;;2.4;1.2;;;;;;;;;;;;;
2024/04/07 03:51:05;;;;;;;4.2;1.1;;;;;;;;;;;;;
2024/04/07 03:53:30;;;;;;;1.6;1;;;;;;;;;;;;;
2024/04/07 03:55:56;;;;;;;3;1.2;;;;;;;;;;;;;
2024/04/07 03:58:21;;;;;;;1.8;1.1;;;;;;;;;;;;;
2024/04/07 04:02:31;;;;;;;1.8;1.1;;;;;;;;;;;;;
2024/04/07 04:04:55;;;;;;;1.8;1;;;;;;;;;;;;;
2024/04/07 04:07:20;;;;;;;2.6;1;;;;;;;;;;;;;
2024/04/07 04:09:46;;;;;;;2;0.9;;;;;;;;;;;;;
2024/04/07 04:12:10;;;;;;;1.8;1.1;;;;;;;;;;;;;
2024/04/07 04:14:35;;;;;;;1.4;1.1;;;;;;;;;;;;;
2024/04/07 04:17:00;;;;;;;1.7;1;;;;;;;;;;;;;
2024/04/07 04:19:26;;;;;;;1.7;1.1;;;;;;;;;;;;;
2024/04/07 04:21:52;;;;;;;1.1;1;;;;;;;;;;;;;
2024/04/07 04:24:16;;;;;;;2;1;;;;;;;;;;;;;
2024/04/07 04:26:41;;;;;;;1.9;1.2;;;;;;;;;;;;;
2024/04/07 04:29:06;;;;;;;1.7;0.8;;;;;;;;;;;;;
2024/04/07 04:31:32;;;;;;;1.5;1.1;;;;;;;;;;;;;
2024/04/07 04:33:56;;;;;;;3.3;1.3;;;;;;;;;;;;;
2024/04/07 04:36:21;;;;;;;2.4;1.5;;;;;;;;;;;;;
2024/04/07 04:38:46;;;;;;;1.6;1.2;;;;;;;;;;;;;
2024/04/07 04:41:11;;;;;;;1.6;1.3;;;;;;;;;;;;;
2024/04/07 04:43:37;;;;;;;1.9;1.1;;;;;;;;;;;;;
2024/04/07 04:46:03;;;;;;;2.1;1.2;;;;;;;;;;;;;
2024/04/07 04:48:27;;;;;;;2.1;1.2;;;;;;;;;;;;;
2024/04/07 04:50:52;;;;;;;3.1;1.1;;;;;;;;;;;;;
2024/04/07 04:53:17;;;;;;;1.3;1.1;;;;;;;;;;;;;
2024/04/07 04:55:42;;;;;;;2.3;1.2;;;;;;;;;;;;;
2024/04/07 04:58:07;;;;;;;2.3;1.3;;;;;;;;;;;;;
2024/04/07 05:00:32;;;;;;;1.7;1.4;;;;;;;;;;;;;
2024/04/07 05:02:57;;;;;;;1.9;1.4;;;;;;;;;;;;;
2024/04/07 05:05:22;;;;;;;3.4;1.4;;;;;;;;;;;;;
2024/04/07 05:07:48;;;;;;;2.5;1.2;;;;;;;;;;;;;
2024/04/07 05:10:13;;;;;;;2;1.1;;;;;;;;;;;;;
2024/04/07 05:12:38;;;;;;;9.7;8.7;;;;;;;;;;;;;
2024/04/07 05:15:03;;;;;;;2.4;1.3;;;;;;;;;;;;;
2024/04/07 05:17:28;;;;;;;2;1.1;;;;;;;;;;;;;
2024/04/07 05:19:53;;;;;;;1.5;1.4;;;;;;;;;;;;;
2024/04/07 05:22:18;;;;;;;2.2;1.2;;;;;;;;;;;;;
2024/04/07 05:24:43;;;;;;;1.8;1.5;;;;;;;;;;;;;
2024/04/07 05:27:08;;;;;;;2.5;1.5;;;;;;;;;;;;;
2024/04/07 05:29:34;;;;;;;1.5;1.4;;;;;;;;;;;;;
2024/04/07 05:31:59;;;;;;;4;1.5;;;;;;;;;;;;;
2024/04/07 05:34:26;;;;;;;1.7;1.3;;;;;;;;;;;;;
2024/04/07 05:36:49;;;;;;;3;1.6;;;;;;;;;;;;;
2024/04/07 05:39:14;;;;;;;2.7;1.3;;;;;;;;;;;;;
2024/04/07 05:41:39;;;;;;;3.5;1.3;;;;;;;;;;;;;
2024/04/07 05:44:05;;;;;;;3.9;1.3;;;;;;;;;;;;;
2024/04/07 05:46:29;;;;;;;3.2;1.2;;;;;;;;;;;;;
2024/04/07 05:48:55;;;;;;;3.1;1.8;;;;;;;;;;;;;
2024/04/07 05:51:20;;;;;;;5.4;2.8;;;;;;;;;;;;;
2024/04/07 05:53:45;;;;;;;7.4;3.6;;;;;;;;;;;;;
2024/04/07 05:56:10;;;;;;;7.6;4.6;;;;;;;;;;;;;
2024/04/07 05:58:35;;;;;;;3.4;1.6;;;;;;;;;;;;;
2024/04/07 06:01:00;;;;;;;3.9;2.1;;;;;;;;;;;;;
2024/04/07 06:03:25;;;;;;;1.8;1.2;;;;;;;;;;;;;
2024/04/07 06:05:50;;;;;;;1.9;1.2;;;;;;;;;;;;;
2024/04/07 06:08:15;;;;;;;1.8;1.3;;;;;;;;;;;;;
2024/04/07 06:10:41;;;;;;;2.5;1.4;;;;;;;;;;;;;
2024/04/07 06:13:06;;;;;;;1.7;1.5;;;;;;;;;;;;;
2024/04/07 06:15:31;;;;;;;2.4;1.8;;;;;;;;;;;;;
2024/04/07 06:17:56;;;;;;;2.2;1.6;;;;;;;;;;;;;
2024/04/07 06:20:21;;;;;;;2.4;1.5;;;;;;;;;;;;;
2024/04/07 06:22:46;;;;;;;2.4;1.3;;;;;;;;;;;;;
2024/04/07 06:25:11;;;;;;;1.3;1.1;;;;;;;;;;;;;
2024/04/07 06:27:36;;;;;;;1.6;1.2;;;;;;;;;;;;;
2024/04/07 06:30:02;;;;;;;2.2;1.2;;;;;;;;;;;;;
2024/04/07 06:32:26;;;;;;;2;1.2;;;;;;;;;;;;;
2024/04/07 06:34:52;;;;;;;1.6;1.4;;;;;;;;;;;;;
2024/04/07 06:37:17;;;;;;;2.6;1.5;;;;;;;;;;;;;
2024/04/07 06:39:42;;;;;;;2.6;1.6;;;;;;;;;;;;;
2024/04/07 06:42:07;;;;;;;3.7;1.6;;;;;;;;;;;;;
2024/04/07 06:44:32;;;;;;;2.3;1.2;;;;;;;;;;;;;
2024/04/07 06:46:57;;;;;;;2.3;1.3;;;;;;;;;;;;;
2024/04/07 06:49:22;;;;;;;2.4;1.3;;;;;;;;;;;;;
2024/04/07 06:51:47;;;;;;;6.7;1.7;;;;;;;;;;;;;
2024/04/07 06:54:13;;;;;;;2.1;1.4;;;;;;;;;;;;;
2024/04/07 06:56:37;;;;;;;2.9;1.4;;;;;;;;;;;;;
2024/04/07 06:59:03;;;;;;;4.6;1.7;;;;;;;;;;;;;
2024/04/07 07:01:28;;;;;;;2.9;1.5;;;;;;;;;;;;;
2024/04/07 07:03:53;;;;;;;3.1;1.9;;;;;;;;;;;;;
2024/04/07 07:06:18;;;;;;;3.8;1.9;;;;;;;;;;;;;
2024/04/07 07:08:44;;;;;;;3.5;1.8;;;;;;;;;;;;;
2024/04/07 07:11:08;;;;;;;5.7;2.2;;;;;;;;;;;;;
2024/04/07 07:13:40;;;;;;;3.7;1.9;;;;;;;;;;;;;
2024/04/07 07:15:59;;;;;;;3.7;1.6;;;;;;;;;;;;;
2024/04/07 07:18:24;;;;;;;2;1.4;;;;;;;;;;;;;
2024/04/07 07:20:49;;;;;;;4.1;1.7;;;;;;;;;;;;;
2024/04/07 07:23:14;;;;;;;3;1.7;;;;;;;;;;;;;
2024/04/07 07:25:39;;;;;;;2.2;1.5;;;;;;;;;;;;;
2024/04/07 07:28:05;;;;;;;2.9;1.8;;;;;;;;;;;;;
2024/04/07 07:30:29;;;;;;;2.7;1.6;;;;;;;;;;;;;
2024/04/07 07:32:54;;;;;;;2;1.5;;;;;;;;;;;;;
2024/04/07 07:35:20;;;;;;;2.2;1.1;;;;;;;;;;;;;
2024/04/07 07:37:45;;;;;;;2.6;1.2;;;;;;;;;;;;;
2024/04/07 07:40:10;;;;;;;4.8;1.4;;;;;;;;;;;;;
2024/04/07 07:42:36;;;;;;;1.8;1.1;;;;;;;;;;;;;
2024/04/07 07:45:00;;;;;;;1;0.9;;;;;;;;;;;;;
2024/04/07 07:47:25;;;;;;;0.8;0.8;;;;;;;;;;;;;
2024/04/07 07:49:51;;;;;;;1.4;0.9;;;;;;;;;;;;;
2024/04/07 07:52:16;;;;;;;1.4;1;;;;;;;;;;;;;
2024/04/07 07:54:41;;;;;;;1.5;0.9;;;;;;;;;;;;;
2024/04/07 07:57:06;;;;;;;2.1;1.1;;;;;;;;;;;;;
2024/04/07 07:59:31;;;;;;;2.7;1;;;;;;;;;;;;;
2024/04/07 08:01:56;;;;;;;1.8;1;;;;;;;;;;;;;
2024/04/07 08:04:21;;;;;;;1.2;1;;;;;;;;;;;;;
2024/04/07 08:06:46;;;;;;;3.5;1.4;;;;;;;;;;;;;
2024/04/07 08:09:11;;;;;;;1.3;0.9;;;;;;;;;;;;;
2024/04/07 08:11:36;;;;;;;1.4;1.1;;;;;;;;;;;;;
2024/04/07 08:14:01;;;;;;;1.4;1.1;;;;;;;;;;;;;
2024/04/07 08:16:26;;;;;;;1.8;0.9;;;;;;;;;;;;;
2024/04/07 08:18:52;;;;;;;1.5;0.8;;;;;;;;;;;;;
2024/04/07 08:21:17;;;;;;;1.4;0.9;;;;;;;;;;;;;
2024/04/07 08:23:42;;;;;;;1.4;1;;;;;;;;;;;;;
2024/04/07 08:26:07;;;;;;;2.4;1.1;;;;;;;;;;;;;
2024/04/07 08:28:32;;;;;;;0.7;0.7;;;;;;;;;;;;;
2024/04/07 08:30:58;;;;;;;1.9;1.1;;;;;;;;;;;;;
2024/04/07 08:33:22;;;;;;;1;0.9;;;;;;;;;;;;;
2024/04/07 08:35:48;;;;;;;2.6;0.8;;;;;;;;;;;;;
2024/04/07 08:38:13;;;;;;;2.5;0.8;;;;;;;;;;;;;
2024/04/07 08:40:38;;;;;;;1.5;0.7;;;;;;;;;;;;;
2024/04/07 08:43:03;;;;;;;3.9;1;;;;;;;;;;;;;
2024/04/07 08:45:28;;;;;;;1.7;0.9;;;;;;;;;;;;;
2024/04/07 08:47:54;;;;;;;1.9;0.7;;;;;;;;;;;;;
2024/04/07 08:50:19;;;;;;;1.2;0.6;;;;;;;;;;;;;
2024/04/07 08:52:44;;;;;;;1.3;0.9;;;;;;;;;;;;;
2024/04/07 08:55:09;;;;;;;1.5;0.8;;;;;;;;;;;;;
2024/04/07 08:57:34;;;;;;;1.4;0.8;;;;;;;;;;;;;
2024/04/07 08:59:59;;;;;;;2;0.9;;;;;;;;;;;;;
2024/04/07 09:02:24;;;;;;;1.3;0.7;;;;;;;;;;;;;
2024/04/07 09:04:49;;;;;;;2;0.9;;;;;;;;;;;;;
2024/04/07 09:07:14;;;;;;;1.3;0.8;;;;;;;;;;;;;
2024/04/07 09:09:39;;;;;;;0.5;0.5;;;;;;;;;;;;;
2024/04/07 09:12:07;;;;;;;1.6;0.9;;;;;;;;;;;;;
2024/04/07 09:14:32;;;;;;;1.7;0.8;;;;;;;;;;;;;
2024/04/07 09:16:55;;;;;;;1.5;0.8;;;;;;;;;;;;;
2024/04/07 09:19:20;;;;;;;2.7;1.1;;;;;;;;;;;;;
2024/04/07 09:21:45;;;;;;;2.5;1.1;;;;;;;;;;;;;
2024/04/07 09:24:10;;;;;;;2.1;1.1;;;;;;;;;;;;;
2024/04/07 09:26:36;;;;;;;3;1.2;;;;;;;;;;;;;
2024/04/07 09:29:00;;;;;;;3.8;1.3;;;;;;;;;;;;;
2024/04/07 09:31:26;;;;;;;1.2;1;;;;;;;;;;;;;
2024/04/07 09:33:51;;;;;;;2.2;1.1;;;;;;;;;;;;;
2024/04/07 09:36:16;;;;;;;2.3;1;;;;;;;;;;;;;
2024/04/07 09:38:41;;;;;;;2.2;1.1;;;;;;;;;;;;;
2024/04/07 09:41:06;;;;;;;2.2;1.2;;;;;;;;;;;;;
2024/04/07 09:43:31;;;;;;;2.3;1.1;;;;;;;;;;;;;
2024/04/07 09:45:57;;;;;;;2.5;1.4;;;;;;;;;;;;;
2024/04/07 09:48:21;;;;;;;2.4;1;;;;;;;;;;;;;
2024/04/07 09:50:46;;;;;;;3.2;1.1;;;;;;;;;;;;;
2024/04/07 09:53:12;;;;;;;4.3;1;;;;;;;;;;;;;
2024/04/07 09:55:37;;;;;;;5.7;1.3;;;;;;;;;;;;;
2024/04/07 09:58:02;;;;;;;5.6;1.2;;;;;;;;;;;;;
2024/04/07 10:00:27;;;;;;;5.1;1.6;;;;;;;;;;;;;
2024/04/07 10:02:52;;;;;;;4.7;1.2;;;;;;;;;;;;;
2024/04/07 10:05:17;;;;;;;5.5;1.3;;;;;;;;;;;;;
2024/04/07 10:07:43;;;;;;;4.3;1.4;;;;;;;;;;;;;
2024/04/07 10:10:08;;;;;;;17.7;6.4;;;;;;;;;;;;;
2024/04/07 10:12:33;;;;;;;7.4;1.9;;;;;;;;;;;;;
2024/04/07 10:14:58;;;;;;;10.7;3.3;;;;;;;;;;;;;
2024/04/07 10:17:23;;;;;;;4.6;1.5;;;;;;;;;;;;;
2024/04/07 10:19:49;;;;;;;6.3;1.9;;;;;;;;;;;;;
2024/04/07 10:22:13;;;;;;;5;1.3;;;;;;;;;;;;;
2024/04/07 10:24:38;;;;;;;8.3;2.5;;;;;;;;;;;;;
2024/04/07 10:27:03;;;;;;;4.1;1.3;;;;;;;;;;;;;
2024/04/07 10:29:30;;;;;;;5.6;1.7;;;;;;;;;;;;;
2024/04/07 10:31:53;;;;;;;4.2;1.4;;;;;;;;;;;;;
2024/04/07 10:34:18;;;;;;;5.9;1.5;;;;;;;;;;;;;
2024/04/07 10:36:43;;;;;;;6.7;1.7;;;;;;;;;;;;;
2024/04/07 10:39:10;;;;;;;7.9;2;;;;;;;;;;;;;
2024/04/07 10:41:34;;;;;;;10.3;2;;;;;;;;;;;;;
2024/04/07 10:43:59;;;;;;;5.1;1.5;;;;;;;;;;;;;
2024/04/07 10:46:24;;;;;;;6.2;1.9;;;;;;;;;;;;;
2024/04/07 10:48:49;;;;;;;9.2;2;;;;;;;;;;;;;
2024/04/07 10:51:16;;;;;;;7.1;1.9;;;;;;;;;;;;;
2024/04/07 10:53:39;;;;;;;6.5;1.8;;;;;;;;;;;;;
2024/04/07 10:56:04;;;;;;;5.5;1.4;;;;;;;;;;;;;
2024/04/07 10:58:30;;;;;;;11.3;1.8;;;;;;;;;;;;;
2024/04/07 11:00:55;;;;;;;6.1;1.8;;;;;;;;;;;;;
2024/04/07 11:03:20;;;;;;;10.3;2.1;;;;;;;;;;;;;
2024/04/07 11:05:45;;;;;;;6.1;1.9;;;;;;;;;;;;;
2024/04/07 11:08:10;;;;;;;12.1;1.6;;;;;;;;;;;;;
2024/04/07 11:10:36;;;;;;;5.3;1.5;;;;;;;;;;;;;
2024/04/07 11:13:02;;;;;;;9.3;1.7;;;;;;;;;;;;;
2024/04/07 11:15:26;;;;;;;8.4;1.8;;;;;;;;;;;;;
2024/04/07 11:17:51;;;;;;;6.5;1.7;;;;;;;;;;;;;
2024/04/07 11:20:16;;;;;;;6.9;2;;;;;;;;;;;;;
2024/04/07 11:22:41;;;;;;;5.6;1.7;;;;;;;;;;;;;
2024/04/07 11:25:06;;;;;;;7.1;2.4;;;;;;;;;;;;;
2024/04/07 11:27:31;;;;;;;6.8;1.7;;;;;;;;;;;;;
2024/04/07 11:29:56;;;;;;;5.8;1.9;;;;;;;;;;;;;
2024/04/07 11:32:21;;;;;;;9.5;2;;;;;;;;;;;;;
2024/04/07 11:34:47;;;;;;;6;1.5;;;;;;;;;;;;;
2024/04/07 11:37:12;;;;;;;7.8;1.5;;;;;;;;;;;;;
2024/04/07 11:39:37;;;;;;;10.8;2.2;;;;;;;;;;;;;
2024/04/07 11:42:05;;;;;;;4.4;1.6;;;;;;;;;;;;;
2024/04/07 11:44:27;;;;;;;4.8;1.3;;;;;;;;;;;;;
2024/04/07 11:46:52;;;;;;;10.6;2.3;;;;;;;;;;;;;
2024/04/07 11:49:17;;;;;;;6.3;2.2;;;;;;;;;;;;;
2024/04/07 11:51:42;;;;;;;6.3;1.5;;;;;;;;;;;;;
2024/04/07 11:54:07;;;;;;;9.6;1.8;;;;;;;;;;;;;
2024/04/07 11:56:33;;;;;;;7.1;2.2;;;;;;;;;;;;;
2024/04/07 11:58:58;;;;;;;8.3;1.6;;;;;;;;;;;;;
2024/04/07 12:01:23;;;;;;;7.4;2.2;;;;;;;;;;;;;
2024/04/07 12:03:48;;;;;;;9.7;1.6;;;;;;;;;;;;;
2024/04/07 12:06:14;;;;;;;7.1;1.9;;;;;;;;;;;;;
2024/04/07 12:08:38;;;;;;;6;2.2;;;;;;;;;;;;;
2024/04/07 12:11:03;;;;;;;8.6;2;;;;;;;;;;;;;
2024/04/07 12:13:28;;;;;;;4.8;1.9;;;;;;;;;;;;;
2024/04/07 12:15:53;;;;;;;5.6;1.9;;;;;;;;;;;;;
2024/04/07 12:18:18;;;;;;;6.4;1.4;;;;;;;;;;;;;
2024/04/07 12:20:43;;;;;;;6.3;2.1;;;;;;;;;;;;;
2024/04/07 12:23:09;;;;;;;6.9;2.1;;;;;;;;;;;;;
2024/04/07 12:25:34;;;;;;;8.7;1.6;;;;;;;;;;;;;
2024/04/07 12:27:59;;;;;;;13.8;2.1;;;;;;;;;;;;;
2024/04/07 12:30:24;;;;;;;5.1;1.7;;;;;;;;;;;;;
2024/04/07 12:32:49;;;;;;;11.3;2;;;;;;;;;;;;;
2024/04/07 12:35:14;;;;;;;7.6;2;;;;;;;;;;;;;
2024/04/07 12:37:39;;;;;;;6.9;1.9;;;;;;;;;;;;;
2024/04/07 12:40:05;;;;;;;6.5;2.3;;;;;;;;;;;;;
2024/04/07 12:42:30;;;;;;;6.7;1.7;;;;;;;;;;;;;
2024/04/07 12:44:55;;;;;;;7;1.7;;;;;;;;;;;;;
2024/04/07 12:47:22;;;;;;;7;1.8;;;;;;;;;;;;;
2024/04/07 12:49:45;;;;;;;8;1.9;;;;;;;;;;;;;
2024/04/07 12:52:10;;;;;;;5.3;1.5;;;;;;;;;;;;;
2024/04/07 12:54:35;;;;;;;11.3;2;;;;;;;;;;;;;
2024/04/07 12:57:00;;;;;;;11.4;2.5;;;;;;;;;;;;;
2024/04/07 12:59:25;;;;;;;5.1;1.8;;;;;;;;;;;;;
2024/04/07 13:01:50;;;;;;;10.7;1.8;;;;;;;;;;;;;
2024/04/07 13:04:16;;;;;;;6.4;1.6;;;;;;;;;;;;;
2024/04/07 13:06:41;;;;;;;12.4;1.9;;;;;;;;;;;;;
2024/04/07 13:09:06;;;;;;;6.4;1.7;;;;;;;;;;;;;
2024/04/07 13:11:31;;;;;;;6;1.5;;;;;;;;;;;;;
2024/04/07 13:13:56;;;;;;;6.8;1.7;;;;;;;;;;;;;
2024/04/07 13:16:21;;;;;;;9.9;1.8;;;;;;;;;;;;;
2024/04/07 13:18:46;;;;;;;7.4;1.8;;;;;;;;;;;;;
2024/04/07 13:21:11;;;;;;;6.3;1.6;;;;;;;;;;;;;
2024/04/07 13:23:36;;;;;;;10.1;1.8;;;;;;;;;;;;;
2024/04/07 13:26:01;;;;;;;4.3;1.3;;;;;;;;;;;;;
2024/04/07 13:28:26;;;;;;;11;1.7;;;;;;;;;;;;;
2024/04/07 13:30:51;;;;;;;4.8;1.6;;;;;;;;;;;;;
2024/04/07 13:33:17;;;;;;;5.5;2.1;;;;;;;;;;;;;
2024/04/07 13:35:42;;;;;;;7.4;2;;;;;;;;;;;;;
2024/04/07 13:38:07;;;;;;;9.7;1.8;;;;;;;;;;;;;
2024/04/07 13:40:32;;;;;;;6.1;1.7;;;;;;;;;;;;;
2024/04/07 13:42:57;;;;;;;8.5;1.7;;;;;;;;;;;;;
2024/04/07 13:45:22;;;;;;;9.5;2.1;;;;;;;;;;;;;
2024/04/07 13:47:47;;;;;;;10;1.7;;;;;;;;;;;;;
2024/04/07 13:50:12;;;;;;;8;2.7;;;;;;;;;;;;;
2024/04/07 13:52:37;;;;;;;5.1;1.9;;;;;;;;;;;;;
2024/04/07 13:55:03;;;;;;;7.6;2.7;;;;;;;;;;;;;
2024/04/07 13:57:27;;;;;;;7;1.9;;;;;;;;;;;;;
2024/04/07 13:59:53;;;;;;;6.1;1.7;;;;;;;;;;;;;
2024/04/07 14:02:17;;;;;;;8.4;1.9;;;;;;;;;;;;;
2024/04/07 14:04:43;;;;;;;5.3;1.9;;;;;;;;;;;;;
2024/04/07 14:07:08;;;;;;;9.3;2;;;;;;;;;;;;;
2024/04/07 14:09:33;;;;;;;7.4;1.8;;;;;;;;;;;;;
2024/04/07 14:11:58;;;;;;;8.8;2;;;;;;;;;;;;;
2024/04/07 14:14:24;;;;;;;8.4;1.9;;;;;;;;;;;;;
2024/04/07 14:16:50;;;;;;;3;1.2;;;;;;;;;;;;;
2024/04/07 14:19:13;;;;;;;8.2;1.5;;;;;;;;;;;;;
2024/04/07 14:21:38;;;;;;;6.3;1.9;;;;;;;;;;;;;
2024/04/07 14:24:03;;;;;;;8.6;1.5;;;;;;;;;;;;;
2024/04/07 14:26:28;;;;;;;8.8;2.2;;;;;;;;;;;;;
2024/04/07 14:28:54;;;;;;;5.5;1.6;;;;;;;;;;;;;
2024/04/07 14:31:19;;;;;;;5.2;1.3;;;;;;;;;;;;;
2024/04/07 14:33:44;;;;;;;5.8;2;;;;;;;;;;;;;
2024/04/07 14:36:09;;;;;;;8;2.1;;;;;;;;;;;;;
2024/04/07 14:38:34;;;;;;;7.6;1.9;;;;;;;;;;;;;
2024/04/07 14:40:59;;;;;;;10.7;2.8;;;;;;;;;;;;;
2024/04/07 14:43:24;;;;;;;9.9;2.4;;;;;;;;;;;;;
2024/04/07 14:45:50;;;;;;;7.4;2;;;;;;;;;;;;;
2024/04/07 14:48:15;;;;;;;8.6;1.8;;;;;;;;;;;;;
2024/04/07 14:50:40;;;;;;;7;2;;;;;;;;;;;;;
2024/04/07 14:53:05;;;;;;;7.7;1.6;;;;;;;;;;;;;
2024/04/07 14:55:30;;;;;;;14.4;1.7;;;;;;;;;;;;;
2024/04/07 14:57:56;;;;;;;6.6;1.8;;;;;;;;;;;;;
2024/04/07 15:00:20;;;;;;;6.5;1.6;;;;;;;;;;;;;
2024/04/07 15:02:46;;;;;;;10;1.7;;;;;;;;;;;;;
2024/04/07 15:05:11;;;;;;;9.2;1.5;;;;;;;;;;;;;
2024/04/07 15:07:36;;;;;;;9.7;2;;;;;;;;;;;;;
2024/04/07 15:10:01;;;;;;;4.8;1.7;;;;;;;;;;;;;
2024/04/07 15:12:26;;;;;;;6.7;1.8;;;;;;;;;;;;;
2024/04/07 15:14:51;;;;;;;6.5;2.8;;;;;;;;;;;;;
2024/04/07 15:17:17;;;;;;;9.1;1.7;;;;;;;;;;;;;
2024/04/07 15:19:42;;;;;;;5.4;1.6;;;;;;;;;;;;;
2024/04/07 15:22:07;;;;;;;7.6;1.7;;;;;;;;;;;;;
2024/04/07 15:24:33;;;;;;;6.5;1.8;;;;;;;;;;;;;
2024/04/07 15:26:58;;;;;;;9.3;1.6;;;;;;;;;;;;;
2024/04/07 15:29:23;;;;;;;5.5;2;;;;;;;;;;;;;
2024/04/07 15:31:48;;;;;;;7.9;2.3;;;;;;;;;;;;;
2024/04/07 15:34:13;;;;;;;7.6;1.7;;;;;;;;;;;;;
2024/04/07 15:36:39;;;;;;;8;1.9;;;;;;;;;;;;;
2024/04/07 15:39:04;;;;;;;9.3;1.9;;;;;;;;;;;;;
2024/04/07 15:41:29;;;;;;;8.3;1.8;;;;;;;;;;;;;
2024/04/07 15:43:54;;;;;;;5.3;1.8;;;;;;;;;;;;;
2024/04/07 15:46:19;;;;;;;4.7;1.8;;;;;;;;;;;;;
2024/04/07 15:48:45;;;;;;;7.2;2.1;;;;;;;;;;;;;
2024/04/07 15:51:09;;;;;;;7.9;2;;;;;;;;;;;;;
2024/04/07 15:53:34;;;;;;;8.2;2;;;;;;;;;;;;;
2024/04/07 15:55:59;;;;;;;7.7;2;;;;;;;;;;;;;
2024/04/07 15:58:24;;;;;;;6.4;1.9;;;;;;;;;;;;;
2024/04/07 16:00:51;;;;;;;6.5;2;;;;;;;;;;;;;
2024/04/07 16:03:15;;;;;;;7.1;1.8;;;;;;;;;;;;;
2024/04/07 16:05:40;;;;;;;8.3;2;;;;;;;;;;;;;
2024/04/07 16:08:05;;;;;;;8.3;2;;;;;;;;;;;;;
2024/04/07 16:10:30;;;;;;;7.1;1.9;;;;;;;;;;;;;
2024/04/07 16:12:56;;;;;;;5.4;1.9;;;;;;;;;;;;;
2024/04/07 16:15:20;;;;;;;7.8;2.2;;;;;;;;;;;;;
2024/04/07 16:17:45;;;;;;;7.7;1.8;;;;;;;;;;;;;
2024/04/07 16:20:10;;;;;;;10;2.2;;;;;;;;;;;;;
2024/04/07 16:22:36;;;;;;;9.9;2.1;;;;;;;;;;;;;
2024/04/07 16:25:02;;;;;;;9.5;1.9;;;;;;;;;;;;;
2024/04/07 16:27:26;;;;;;;7.4;2.2;;;;;;;;;;;;;
2024/04/07 16:29:51;;;;;;;8.3;2.6;;;;;;;;;;;;;
2024/04/07 16:32:16;;;;;;;9.1;2.6;;;;;;;;;;;;;
2024/04/07 16:34:41;;;;;;;7.9;2.6;;;;;;;;;;;;;
2024/04/07 16:37:08;;;;;;;6.5;1.8;;;;;;;;;;;;;
2024/04/07 16:39:31;;;;;;;7.6;2;;;;;;;;;;;;;
2024/04/07 16:41:57;;;;;;;9.5;2.4;;;;;;;;;;;;;
2024/04/07 16:44:22;;;;;;;10.6;2;;;;;;;;;;;;;
2024/04/07 16:46:47;;;;;;;8.9;1.9;;;;;;;;;;;;;
2024/04/07 16:49:12;;;;;;;11.7;2.6;;;;;;;;;;;;;
2024/04/07 16:51:37;;;;;;;7.3;2.2;;;;;;;;;;;;;
2024/04/07 16:54:02;;;;;;;7.5;2.2;;;;;;;;;;;;;
2024/04/07 16:56:27;;;;;;;9.3;2.8;;;;;;;;;;;;;
2024/04/07 16:58:52;;;;;;;7.2;2.5;;;;;;;;;;;;;
2024/04/07 17:01:17;;;;;;;9.5;2.9;;;;;;;;;;;;;
2024/04/07 17:03:43;;;;;;;8.1;2.2;;;;;;;;;;;;;
2024/04/07 17:06:08;;;;;;;15.3;2.7;;;;;;;;;;;;;
2024/04/07 17:08:32;;;;;;;9.1;2.5;;;;;;;;;;;;;
2024/04/07 17:10:58;;;;;;;8.8;2;;;;;;;;;;;;;
2024/04/07 17:13:23;;;;;;;11.2;2.3;;;;;;;;;;;;;
2024/04/07 17:15:48;;;;;;;7.3;1.7;;;;;;;;;;;;;
2024/04/07 17:18:13;;;;;;;4.5;1.5;;;;;;;;;;;;;
2024/04/07 17:20:38;;;;;;;6.4;2.1;;;;;;;;;;;;;
2024/04/07 17:23:03;;;;;;;9.5;1.6;;;;;;;;;;;;;
2024/04/07 17:25:28;;;;;;;9.8;3;;;;;;;;;;;;;
2024/04/07 17:27:53;;;;;;;15.4;3.6;;;;;;;;;;;;;
2024/04/07 17:30:19;;;;;;;15.4;3.6;;;;;;;;;;;;;
2024/04/07 17:32:43;;;;;;;15.7;4.2;;;;;;;;;;;;;
2024/04/07 17:35:09;;;;;;;14.6;4.8;;;;;;;;;;;;;
2024/04/07 17:37:34;;;;;;;16.3;3.6;;;;;;;;;;;;;
2024/04/07 17:39:59;;;;;;;12;3.8;;;;;;;;;;;;;
2024/04/07 17:42:24;;;;;;;13.9;3.8;;;;;;;;;;;;;
2024/04/07 17:44:51;;;;;;;9.3;3.5;;;;;;;;;;;;;
2024/04/07 17:47:14;;;;;;;7.5;2.3;;;;;;;;;;;;;
2024/04/07 17:49:39;;;;;;;12.9;5.3;;;;;;;;;;;;;
2024/04/07 17:52:04;;;;;;;14.3;5.5;;;;;;;;;;;;;
2024/04/07 17:54:29;;;;;;;6.4;2.6;;;;;;;;;;;;;
2024/04/07 17:56:55;;;;;;;8.7;3;;;;;;;;;;;;;
2024/04/07 17:59:22;;;;;;;7.2;2.3;;;;;;;;;;;;;
2024/04/07 18:01:45;;;;;;;10.2;2.7;;;;;;;;;;;;;
2024/04/07 18:04:10;;;;;;;8.9;2.5;;;;;;;;;;;;;
2024/04/07 18:06:35;;;;;;;6.4;2.2;;;;;;;;;;;;;
2024/04/07 18:09:01;;;;;;;7.3;2.3;;;;;;;;;;;;;
2024/04/07 18:11:25;;;;;;;10.1;2.6;;;;;;;;;;;;;
2024/04/07 18:13:52;;;;;;;9.4;2.4;;;;;;;;;;;;;
2024/04/07 18:16:17;;;;;;;7.5;2.6;;;;;;;;;;;;;
2024/04/07 18:18:40;;;;;;;6.7;2.3;;;;;;;;;;;;;
2024/04/07 18:21:06;;;;;;;8.8;2.4;;;;;;;;;;;;;
2024/04/07 18:23:31;;;;;;;6;2.3;;;;;;;;;;;;;
2024/04/07 18:25:56;;;;;;;7.4;1.8;;;;;;;;;;;;;
2024/04/07 18:28:21;;;;;;;7;1.9;;;;;;;;;;;;;
2024/04/07 18:30:46;;;;;;;9.7;2.3;;;;;;;;;;;;;
2024/04/07 18:33:11;;;;;;;5.6;2;;;;;;;;;;;;;
2024/04/07 18:35:37;;;;;;;7.5;2.1;;;;;;;;;;;;;
2024/04/07 18:38:03;;;;;;;8.3;2.2;;;;;;;;;;;;;
2024/04/07 18:40:27;;;;;;;8.9;2.7;;;;;;;;;;;;;
2024/04/07 18:42:52;;;;;;;7.8;2.9;;;;;;;;;;;;;
2024/04/07 18:45:17;;;;;;;8.9;3.4;;;;;;;;;;;;;
2024/04/07 18:47:42;;;;;;;8;2.5;;;;;;;;;;;;;
2024/04/07 18:50:07;;;;;;;8.1;2.4;;;;;;;;;;;;;
2024/04/07 18:52:33;;;;;;;10;2.6;;;;;;;;;;;;;
2024/04/07 18:54:58;;;;;;;9.6;3.7;;;;;;;;;;;;;
2024/04/07 18:57:23;;;;;;;16.4;5.2;;;;;;;;;;;;;
2024/04/07 18:59:48;;;;;;;12.7;3.7;;;;;;;;;;;;;
2024/04/07 19:02:20;;;;;;;13.3;4.5;;;;;;;;;;;;;
2024/04/07 19:04:38;;;;;;;13.7;5.4;;;;;;;;;;;;;
2024/04/07 19:07:03;;;;;;;12.8;4.6;;;;;;;;;;;;;
2024/04/07 19:09:28;;;;;;;12.5;4.2;;;;;;;;;;;;;
2024/04/07 19:11:54;;;;;;;9.6;3.6;;;;;;;;;;;;;
2024/04/07 19:14:19;;;;;;;17.8;4.4;;;;;;;;;;;;;
2024/04/07 19:16:44;;;;;;;13.6;4.5;;;;;;;;;;;;;
2024/04/07 19:19:11;;;;;;;11.8;3.8;;;;;;;;;;;;;
2024/04/07 19:21:34;;;;;;;12.5;3.9;;;;;;;;;;;;;
2024/04/07 19:23:59;;;;;;;9.8;3.5;;;;;;;;;;;;;
2024/04/07 19:26:25;;;;;;;10.3;3.9;;;;;;;;;;;;;
2024/04/07 19:28:49;;;;;;;10.3;3.9;;;;;;;;;;;;;
2024/04/07 19:31:14;;;;;;;10.8;4;;;;;;;;;;;;;
2024/04/07 19:33:40;;;;;;;10.4;3.3;;;;;;;;;;;;;
2024/04/07 19:36:05;;;;;;;10.3;3.4;;;;;;;;;;;;;
2024/04/07 19:38:30;;;;;;;9.1;3;;;;;;;;;;;;;
2024/04/07 19:40:55;;;;;;;7.3;3.2;;;;;;;;;;;;;
2024/04/07 19:43:20;;;;;;;11;3.4;;;;;;;;;;;;;
2024/04/07 19:45:46;;;;;;;9.3;3.2;;;;;;;;;;;;;
2024/04/07 19:48:11;;;;;;;7.5;2.6;;;;;;;;;;;;;
2024/04/07 19:50:36;;;;;;;11.1;3.3;;;;;;;;;;;;;
2024/04/07 19:53:01;;;;;;;12;3.7;;;;;;;;;;;;;
2024/04/07 19:55:26;;;;;;;14.3;3.4;;;;;;;;;;;;;
2024/04/07 19:57:51;;;;;;;10.1;3.4;;;;;;;;;;;;;
2024/04/07 20:00:16;;;;;;;9.8;3.7;;;;;;;;;;;;;
2024/04/07 20:02:41;;;;;;;16.7;5.2;;;;;;;;;;;;;
2024/04/07 20:05:06;;;;;;;9.5;3.8;;;;;;;;;;;;;
2024/04/07 20:07:31;;;;;;;11.5;4.3;;;;;;;;;;;;;
2024/04/07 20:09:57;;;;;;;8.8;3.2;;;;;;;;;;;;;
2024/04/07 20:12:22;;;;;;;10.7;3.5;;;;;;;;;;;;;
2024/04/07 20:14:47;;;;;;;10.4;3.3;;;;;;;;;;;;;
2024/04/07 20:17:13;;;;;;;10.4;3.9;;;;;;;;;;;;;
2024/04/07 20:19:37;;;;;;;10.8;3.4;;;;;;;;;;;;;
2024/04/07 20:22:02;;;;;;;8;3.3;;;;;;;;;;;;;
2024/04/07 20:24:29;;;;;;;9.7;3.4;;;;;;;;;;;;;
2024/04/07 20:26:53;;;;;;;9.9;3.4;;;;;;;;;;;;;
2024/04/07 20:29:17;;;;;;;12;3;;;;;;;;;;;;;
2024/04/07 20:31:43;;;;;;;11.6;3;;;;;;;;;;;;;
2024/04/07 20:34:09;;;;;;;11.5;3.6;;;;;;;;;;;;;